sensor_id;sensor_type;location;lat;lon;timestamp;pressure;altitude;pressure_sealevel;temperature
18161;BMP280;9205;52.032;4.314;2024-03-23T00:55:47;101057.28;;;10.17
18161;BMP280;9205;52.032;4.314;2024-03-23T00:58:13;101055.59;;;10.16
18161;BMP280;9205;52.032;4.314;2024-03-23T01:00:41;101042.97;;;10.11
18161;BMP280;9205;52.032;4.314;2024-03-23T01:03:07;101038.81;;;10.07
18161;BMP280;9205;52.032;4.314;2024-03-23T01:05:34;101045.72;;;9.99
18161;BMP280;9205;52.032;4.314;2024-03-23T01:08:00;101044.06;;;9.93
18161;BMP280;9205;52.032;4.314;2024-03-23T01:10:28;101037.38;;;9.89
18161;BMP280;9205;52.032;4.314;2024-03-23T01:12:55;101028.94;;;9.87
18161;BMP280;9205;52.032;4.314;2024-03-23T01:15:22;101037.38;;;9.88
18161;BMP280;9205;52.032;4.314;2024-03-23T01:17:48;101030.72;;;9.82
18161;BMP280;9205;52.032;4.314;2024-03-23T01:20:16;101029.06;;;9.80
18161;BMP280;9205;52.032;4.314;2024-03-23T01:22:42;101030.78;;;9.79
18161;BMP280;9205;52.032;4.314;2024-03-23T01:25:10;101042.63;;;9.79
18161;BMP280;9205;52.032;4.314;2024-03-23T01:27:36;101036.75;;;9.74
18161;BMP280;9205;52.032;4.314;2024-03-23T01:30:07;101034.31;;;9.68
18161;BMP280;9205;52.032;4.314;2024-03-23T01:32:33;101036.09;;;9.63
18161;BMP280;9205;52.032;4.314;2024-03-23T01:35:00;101029.34;;;9.60
18161;BMP280;9205;52.032;4.314;2024-03-23T01:37:27;101021.75;;;9.62
18161;BMP280;9205;52.032;4.314;2024-03-23T01:39:54;101022.53;;;9.64
18161;BMP280;9205;52.032;4.314;2024-03-23T01:42:20;101019.16;;;9.63
18161;BMP280;9205;52.032;4.314;2024-03-23T01:44:48;101018.34;;;9.63
18161;BMP280;9205;52.032;4.314;2024-03-23T01:47:16;101019.16;;;9.63
18161;BMP280;9205;52.032;4.314;2024-03-23T01:49:43;101019.25;;;9.59
18161;BMP280;9205;52.032;4.314;2024-03-23T01:52:11;101020.06;;;9.61
18161;BMP280;9205;52.032;4.314;2024-03-23T01:54:40;101020.06;;;9.61
18161;BMP280;9205;52.032;4.314;2024-03-23T01:57:06;101011.59;;;9.60
18161;BMP280;9205;52.032;4.314;2024-03-23T01:59:34;101014.13;;;9.62
18161;BMP280;9205;52.032;4.314;2024-03-23T02:02:00;101010.75;;;9.61
18161;BMP280;9205;52.032;4.314;2024-03-23T02:04:30;101012.38;;;9.64
18161;BMP280;9205;52.032;4.314;2024-03-23T02:06:57;101009.03;;;9.63
18161;BMP280;9205;52.032;4.314;2024-03-23T02:09:24;101006.44;;;9.65
18161;BMP280;9205;52.032;4.314;2024-03-23T02:11:51;101003.06;;;9.66
18161;BMP280;9205;52.032;4.314;2024-03-23T02:14:18;101007.31;;;9.64
18161;BMP280;9205;52.032;4.314;2024-03-23T02:16:44;100998.84;;;9.65
18161;BMP280;9205;52.032;4.314;2024-03-23T02:19:14;100994.63;;;9.64
18161;BMP280;9205;52.032;4.314;2024-03-23T02:21:41;100996.38;;;9.62
18161;BMP280;9205;52.032;4.314;2024-03-23T02:24:10;100984.56;;;9.58
18161;BMP280;9205;52.032;4.314;2024-03-23T02:26:36;100987.94;;;9.60
18161;BMP280;9205;52.032;4.314;2024-03-23T02:29:03;100976.97;;;9.58
18161;BMP280;9205;52.032;4.314;2024-03-23T02:31:29;100981.19;;;9.59
18161;BMP280;9205;52.032;4.314;2024-03-23T02:33:56;100982.91;;;9.57
18161;BMP280;9205;52.032;4.314;2024-03-23T02:36:23;100979.56;;;9.55
18161;BMP280;9205;52.032;4.314;2024-03-23T02:38:50;100979.56;;;9.55
18161;BMP280;9205;52.032;4.314;2024-03-23T02:41:17;100974.53;;;9.52
18161;BMP280;9205;52.032;4.314;2024-03-23T02:43:49;100976.28;;;9.48
18161;BMP280;9205;52.032;4.314;2024-03-23T02:46:18;100972.91;;;9.48
18161;BMP280;9205;52.032;4.314;2024-03-23T02:48:45;100961.88;;;9.49
18161;BMP280;9205;52.032;4.314;2024-03-23T02:51:14;100967.84;;;9.48
18161;BMP280;9205;52.032;4.314;2024-03-23T02:53:41;100967.03;;;9.44
18161;BMP280;9205;52.032;4.314;2024-03-23T02:56:07;100968.81;;;9.39
18161;BMP280;9205;52.032;4.314;2024-03-23T02:58:36;100967.94;;;9.40
18161;BMP280;9205;52.032;4.314;2024-03-23T03:01:02;100967.97;;;9.39
18161;BMP280;9205;52.032;4.314;2024-03-23T03:03:30;100967.97;;;9.37
18161;BMP280;9205;52.032;4.314;2024-03-23T03:05:56;100965.44;;;9.39
18161;BMP280;9205;52.032;4.314;2024-03-23T03:08:24;100966.22;;;9.41
18161;BMP280;9205;52.032;4.314;2024-03-23T03:10:50;100974.72;;;9.40
18161;BMP280;9205;52.032;4.314;2024-03-23T03:13:17;100956.97;;;9.40
18161;BMP280;9205;52.032;4.314;2024-03-23T03:15:45;100962.84;;;9.42
18161;BMP280;9205;52.032;4.314;2024-03-23T03:18:12;100959.41;;;9.44
18161;BMP280;9205;52.032;4.314;2024-03-23T03:20:39;100952.69;;;9.43
18161;BMP280;9205;52.032;4.314;2024-03-23T03:23:06;100962.00;;;9.43
18161;BMP280;9205;52.032;4.314;2024-03-23T03:25:33;100962.00;;;9.43
18161;BMP280;9205;52.032;4.314;2024-03-23T03:28:00;100961.16;;;9.41
18161;BMP280;9205;52.032;4.314;2024-03-23T03:30:27;100951.09;;;9.38
18161;BMP280;9205;52.032;4.314;2024-03-23T03:32:56;100956.19;;;9.36
18161;BMP280;9205;52.032;4.314;2024-03-23T03:35:22;100946.03;;;9.35
18161;BMP280;9205;52.032;4.314;2024-03-23T03:37:49;100951.13;;;9.35
18161;BMP280;9205;52.032;4.314;2024-03-23T03:40:15;100943.56;;;9.32
18161;BMP280;9205;52.032;4.314;2024-03-23T03:42:43;100942.69;;;9.33
18161;BMP280;9205;52.032;4.314;2024-03-23T03:45:09;100948.63;;;9.33
18161;BMP280;9205;52.032;4.314;2024-03-23T03:47:36;100938.50;;;9.32
18161;BMP280;9205;52.032;4.314;2024-03-23T03:50:05;100934.31;;;9.28
18161;BMP280;9205;52.032;4.314;2024-03-23T03:52:32;100934.31;;;9.28
18161;BMP280;9205;52.032;4.314;2024-03-23T03:55:02;100930.09;;;9.27
18161;BMP280;9205;52.032;4.314;2024-03-23T03:57:29;100925.03;;;9.29
18161;BMP280;9205;52.032;4.314;2024-03-23T03:59:56;100927.53;;;9.30
18161;BMP280;9205;52.032;4.314;2024-03-23T04:02:22;100925.81;;;9.31
18161;BMP280;9205;52.032;4.314;2024-03-23T04:04:49;100930.09;;;9.29
18161;BMP280;9205;52.032;4.314;2024-03-23T04:07:17;100919.06;;;9.30
18161;BMP280;9205;52.032;4.314;2024-03-23T04:09:44;100919.94;;;9.30
18161;BMP280;9205;52.032;4.314;2024-03-23T04:12:10;100916.53;;;9.30
18161;BMP280;9205;52.032;4.314;2024-03-23T04:14:37;100920.78;;;9.29
18161;BMP280;9205;52.032;4.314;2024-03-23T04:17:04;100920.81;;;9.26
18161;BMP280;9205;52.032;4.314;2024-03-23T04:19:31;100918.34;;;9.23
18161;BMP280;9205;52.032;4.314;2024-03-23T04:21:57;100915.00;;;9.21
18161;BMP280;9205;52.032;4.314;2024-03-23T04:24:25;100924.31;;;9.19
18161;BMP280;9205;52.032;4.314;2024-03-23T04:26:52;100915.91;;;9.17
18161;BMP280;9205;52.032;4.314;2024-03-23T04:29:19;100917.63;;;9.15
18161;BMP280;9205;52.032;4.314;2024-03-23T04:31:45;100916.78;;;9.16
18161;BMP280;9205;52.032;4.314;2024-03-23T04:34:13;100919.25;;;9.19
18161;BMP280;9205;52.032;4.314;2024-03-23T04:36:39;100917.56;;;9.18
18161;BMP280;9205;52.032;4.314;2024-03-23T04:39:07;100914.97;;;9.23
18161;BMP280;9205;52.032;4.314;2024-03-23T04:41:36;100916.63;;;9.27
18161;BMP280;9205;52.032;4.314;2024-03-23T04:44:04;100914.00;;;9.30
18161;BMP280;9205;52.032;4.314;2024-03-23T04:46:31;100920.75;;;9.32
18161;BMP280;9205;52.032;4.314;2024-03-23T04:48:58;100921.63;;;9.31
18161;BMP280;9205;52.032;4.314;2024-03-23T04:51:26;100917.41;;;9.30
18161;BMP280;9205;52.032;4.314;2024-03-23T04:53:53;100928.38;;;9.32
18161;BMP280;9205;52.032;4.314;2024-03-23T04:56:19;100917.41;;;9.30
18161;BMP280;9205;52.032;4.314;2024-03-23T04:58:48;100924.94;;;9.33
18161;BMP280;9205;52.032;4.314;2024-03-23T05:01:14;100917.31;;;9.36
18161;BMP280;9205;52.032;4.314;2024-03-23T05:03:41;100911.47;;;9.31
18161;BMP280;9205;52.032;4.314;2024-03-23T05:06:07;100915.69;;;9.32
18161;BMP280;9205;52.032;4.314;2024-03-23T05:08:34;100917.31;;;9.36
18161;BMP280;9205;52.032;4.314;2024-03-23T05:11:00;100924.03;;;9.38
18161;BMP280;9205;52.032;4.314;2024-03-23T05:13:28;100919.81;;;9.37
18161;BMP280;9205;52.032;4.314;2024-03-23T05:15:56;100921.63;;;9.30
18161;BMP280;9205;52.032;4.314;2024-03-23T05:18:23;100923.31;;;9.29
18161;BMP280;9205;52.032;4.314;2024-03-23T05:20:56;100921.66;;;9.28
18161;BMP280;9205;52.032;4.314;2024-03-23T05:23:24;100921.78;;;9.21
18161;BMP280;9205;52.032;4.314;2024-03-23T05:25:51;100925.22;;;9.15
18161;BMP280;9205;52.032;4.314;2024-03-23T05:28:19;100926.09;;;9.14
18161;BMP280;9205;52.032;4.314;2024-03-23T05:30:50;100919.31;;;9.15
18161;BMP280;9205;52.032;4.314;2024-03-23T05:33:20;100916.84;;;9.12
18161;BMP280;9205;52.032;4.314;2024-03-23T05:35:47;100918.50;;;9.13
18161;BMP280;9205;52.032;4.314;2024-03-23T05:38:14;100917.66;;;9.12
18161;BMP280;9205;52.032;4.314;2024-03-23T05:40:40;100912.66;;;9.09
18161;BMP280;9205;52.032;4.314;2024-03-23T05:43:08;100916.03;;;9.08
18161;BMP280;9205;52.032;4.314;2024-03-23T05:45:35;100921.13;;;9.05
18161;BMP280;9205;52.032;4.314;2024-03-23T05:48:02;100917.00;;;9.01
18161;BMP280;9205;52.032;4.314;2024-03-23T05:50:29;100917.81;;;9.02
18161;BMP280;9205;52.032;4.314;2024-03-23T05:52:57;100914.47;;;8.98
18161;BMP280;9205;52.032;4.314;2024-03-23T05:55:23;100907.75;;;8.94
18161;BMP280;9205;52.032;4.314;2024-03-23T05:57:50;100917.91;;;8.94
18161;BMP280;9205;52.032;4.314;2024-03-23T06:00:17;100913.69;;;8.95
18161;BMP280;9205;52.032;4.314;2024-03-23T06:02:44;100912.81;;;8.97
18161;BMP280;9205;52.032;4.314;2024-03-23T06:05:11;100909.44;;;8.95
18161;BMP280;9205;52.032;4.314;2024-03-23T06:07:39;100907.75;;;8.94
18161;BMP280;9205;52.032;4.314;2024-03-23T06:10:14;100907.81;;;8.91
18161;BMP280;9205;52.032;4.314;2024-03-23T06:12:42;100902.78;;;8.90
18161;BMP280;9205;52.032;4.314;2024-03-23T06:15:09;100913.78;;;8.87
18161;BMP280;9205;52.032;4.314;2024-03-23T06:17:36;100918.78;;;8.92
18161;BMP280;9205;52.032;4.314;2024-03-23T06:20:05;100917.06;;;8.94
18161;BMP280;9205;52.032;4.314;2024-03-23T06:22:32;100913.78;;;8.89
18161;BMP280;9205;52.032;4.314;2024-03-23T06:25:01;100914.56;;;8.91
18161;BMP280;9205;52.032;4.314;2024-03-23T06:27:27;100915.47;;;8.88
18161;BMP280;9205;52.032;4.314;2024-03-23T06:29:54;100921.34;;;8.90
18161;BMP280;9205;52.032;4.314;2024-03-23T06:32:21;100917.16;;;8.88
18161;BMP280;9205;52.032;4.314;2024-03-23T06:34:48;100918.88;;;8.86
18161;BMP280;9205;52.032;4.314;2024-03-23T06:37:17;100920.47;;;8.93
18161;BMP280;9205;52.032;4.314;2024-03-23T06:39:47;100917.97;;;8.91
18161;BMP280;9205;52.032;4.314;2024-03-23T06:42:14;100913.69;;;8.95
18161;BMP280;9205;52.032;4.314;2024-03-23T06:44:41;100924.63;;;8.98
18161;BMP280;9205;52.032;4.314;2024-03-23T06:47:07;100919.50;;;9.03
18161;BMP280;9205;52.032;4.314;2024-03-23T06:49:34;100918.66;;;9.01
18161;BMP280;9205;52.032;4.314;2024-03-23T06:52:01;100919.56;;;8.98
18161;BMP280;9205;52.032;4.314;2024-03-23T06:54:28;100914.50;;;8.97
18161;BMP280;9205;52.032;4.314;2024-03-23T06:56:55;100922.94;;;8.97
18161;BMP280;9205;52.032;4.314;2024-03-23T06:59:23;100926.31;;;8.96
18161;BMP280;9205;52.032;4.314;2024-03-23T07:01:49;100920.44;;;8.96
18161;BMP280;9205;52.032;4.314;2024-03-23T07:04:16;100922.91;;;9.00
18161;BMP280;9205;52.032;4.314;2024-03-23T07:06:43;100921.09;;;9.08
18161;BMP280;9205;52.032;4.314;2024-03-23T07:09:11;100919.34;;;9.13
18161;BMP280;9205;52.032;4.314;2024-03-23T07:11:37;100921.84;;;9.16
18161;BMP280;9205;52.032;4.314;2024-03-23T07:14:05;100920.19;;;9.12
18161;BMP280;9205;52.032;4.314;2024-03-23T07:16:32;100919.44;;;9.07
18161;BMP280;9205;52.032;4.314;2024-03-23T07:18:59;100923.69;;;9.05
18161;BMP280;9205;52.032;4.314;2024-03-23T07:21:25;100924.59;;;9.01
18161;BMP280;9205;52.032;4.314;2024-03-23T07:23:52;100929.66;;;9.01
18161;BMP280;9205;52.032;4.314;2024-03-23T07:26:19;100927.91;;;9.03
18161;BMP280;9205;52.032;4.314;2024-03-23T07:28:46;100922.06;;;9.01
18161;BMP280;9205;52.032;4.314;2024-03-23T07:31:15;100924.50;;;9.07
18161;BMP280;9205;52.032;4.314;2024-03-23T07:33:46;100919.44;;;9.07
18161;BMP280;9205;52.032;4.314;2024-03-23T07:36:14;100922.88;;;9.02
18161;BMP280;9205;52.032;4.314;2024-03-23T07:38:40;100921.13;;;9.05
18161;BMP280;9205;52.032;4.314;2024-03-23T07:41:10;100915.19;;;9.08
18161;BMP280;9205;52.032;4.314;2024-03-23T07:43:37;100915.28;;;9.02
18161;BMP280;9205;52.032;4.314;2024-03-23T07:46:05;100916.06;;;9.05
18161;BMP280;9205;52.032;4.314;2024-03-23T07:48:31;100917.78;;;9.05
18161;BMP280;9205;52.032;4.314;2024-03-23T07:51:02;100916.06;;;9.05
18161;BMP280;9205;52.032;4.314;2024-03-23T07:53:29;100921.09;;;9.08
18161;BMP280;9205;52.032;4.314;2024-03-23T07:55:59;100919.31;;;9.16
18161;BMP280;9205;52.032;4.314;2024-03-23T07:58:26;100918.41;;;9.19
18161;BMP280;9205;52.032;4.314;2024-03-23T08:00:54;100917.56;;;9.18
18161;BMP280;9205;52.032;4.314;2024-03-23T08:03:21;100917.56;;;9.20
18161;BMP280;9205;52.032;4.314;2024-03-23T08:05:48;100918.25;;;9.29
18161;BMP280;9205;52.032;4.314;2024-03-23T08:08:16;100916.41;;;9.38
18161;BMP280;9205;52.032;4.314;2024-03-23T08:10:50;100911.28;;;9.43
18161;BMP280;9205;52.032;4.314;2024-03-23T08:13:16;100904.41;;;9.49
18161;BMP280;9205;52.032;4.314;2024-03-23T08:15:44;100908.38;;;9.64
18161;BMP280;9205;52.032;4.314;2024-03-23T08:18:11;100902.53;;;9.62
18161;BMP280;9205;52.032;4.314;2024-03-23T08:20:39;100919.53;;;9.55
18161;BMP280;9205;52.032;4.314;2024-03-23T08:23:06;100916.06;;;9.61
18161;BMP280;9205;52.032;4.314;2024-03-23T08:25:35;100910.13;;;9.62
18161;BMP280;9205;52.032;4.314;2024-03-23T08:28:01;100902.59;;;9.56
18161;BMP280;9205;52.032;4.314;2024-03-23T08:30:30;100900.91;;;9.56
18161;BMP280;9205;52.032;4.314;2024-03-23T08:32:56;100905.06;;;9.62
18161;BMP280;9205;52.032;4.314;2024-03-23T08:35:23;100900.81;;;9.62
18161;BMP280;9205;52.032;4.314;2024-03-23T08:37:49;100903.53;;;9.52
18161;BMP280;9205;52.032;4.314;2024-03-23T08:40:17;100905.19;;;9.53
18161;BMP280;9205;52.032;4.314;2024-03-23T08:42:44;100900.94;;;9.55
18161;BMP280;9205;52.032;4.314;2024-03-23T08:45:11;100901.81;;;9.54
18161;BMP280;9205;52.032;4.314;2024-03-23T08:47:37;100903.50;;;9.55
18161;BMP280;9205;52.032;4.314;2024-03-23T08:50:06;100906.09;;;9.49
18161;BMP280;9205;52.032;4.314;2024-03-23T08:52:32;100900.25;;;9.45
18161;BMP280;9205;52.032;4.314;2024-03-23T08:54:59;100908.59;;;9.52
18161;BMP280;9205;52.032;4.314;2024-03-23T08:57:26;100905.19;;;9.53
18161;BMP280;9205;52.032;4.314;2024-03-23T08:59:54;100910.31;;;9.51
18161;BMP280;9205;52.032;4.314;2024-03-23T09:02:20;100910.22;;;9.56
18161;BMP280;9205;52.032;4.314;2024-03-23T09:04:47;100910.06;;;9.66
18161;BMP280;9205;52.032;4.314;2024-03-23T09:07:14;100906.56;;;9.72
18161;BMP280;9205;52.032;4.314;2024-03-23T09:09:41;100909.00;;;9.78
18161;BMP280;9205;52.032;4.314;2024-03-23T09:12:08;100904.69;;;9.83
18161;BMP280;9205;52.032;4.314;2024-03-23T09:14:35;100909.81;;;9.81
18161;BMP280;9205;52.032;4.314;2024-03-23T09:17:03;100910.00;;;9.71
18161;BMP280;9205;52.032;4.314;2024-03-23T09:19:31;100902.31;;;9.74
18161;BMP280;9205;52.032;4.314;2024-03-23T09:21:57;100915.84;;;9.74
18161;BMP280;9205;52.032;4.314;2024-03-23T09:24:24;100904.84;;;9.74
18161;BMP280;9205;52.032;4.314;2024-03-23T09:26:52;100904.81;;;9.77
18161;BMP280;9205;52.032;4.314;2024-03-23T09:29:19;100905.66;;;9.76
18161;BMP280;9205;52.032;4.314;2024-03-23T09:31:45;100904.72;;;9.80
18161;BMP280;9205;52.032;4.314;2024-03-23T09:34:14;100911.44;;;9.84
18161;BMP280;9205;52.032;4.314;2024-03-23T09:36:41;100904.88;;;9.72
18161;BMP280;9205;52.032;4.314;2024-03-23T09:39:54;100915.06;;;9.69
18161;BMP280;9205;52.032;4.314;2024-03-23T09:42:55;100916.44;;;9.87
18161;BMP280;9205;52.032;4.314;2024-03-23T09:45:27;100904.44;;;9.98
18161;BMP280;9205;52.032;4.314;2024-03-23T09:47:55;100907.00;;;9.95
18161;BMP280;9205;52.032;4.314;2024-03-23T09:50:24;100910.47;;;9.91
18161;BMP280;9205;52.032;4.314;2024-03-23T09:52:50;100914.75;;;9.87
18161;BMP280;9205;52.032;4.314;2024-03-23T09:55:17;100911.34;;;9.90
18161;BMP280;9205;52.032;4.314;2024-03-23T09:57:44;100906.22;;;9.91
18161;BMP280;9205;52.032;4.314;2024-03-23T10:00:13;100911.44;;;9.84
18161;BMP280;9205;52.032;4.314;2024-03-23T10:02:39;100899.63;;;9.83
18161;BMP280;9205;52.032;4.314;2024-03-23T10:05:20;100916.53;;;9.84
18161;BMP280;9205;52.032;4.314;2024-03-23T10:07:49;100904.56;;;9.89
18161;BMP280;9205;52.032;4.314;2024-03-23T10:10:17;100908.75;;;9.91
18161;BMP280;9205;52.032;4.314;2024-03-23T10:12:47;100907.81;;;10.00
18161;BMP280;9205;52.032;4.314;2024-03-23T10:15:20;100903.72;;;9.90
18161;BMP280;9205;52.032;4.314;2024-03-23T10:17:47;100903.59;;;9.97
18161;BMP280;9205;52.032;4.314;2024-03-23T10:20:19;100900.13;;;10.04
18161;BMP280;9205;52.032;4.314;2024-03-23T10:22:46;100902.66;;;10.03
18161;BMP280;9205;52.032;4.314;2024-03-23T10:25:22;100903.97;;;10.24
18161;BMP280;9205;52.032;4.314;2024-03-23T10:27:59;100921.88;;;10.17
18161;BMP280;9205;52.032;4.314;2024-03-23T10:30:27;100899.19;;;10.10
18161;BMP280;9205;52.032;4.314;2024-03-23T10:33:07;100899.34;;;10.01
18161;BMP280;9205;52.032;4.314;2024-03-23T10:35:36;100899.50;;;9.89
18161;BMP280;9205;52.032;4.314;2024-03-23T10:38:06;100887.78;;;9.82
18161;BMP280;9205;52.032;4.314;2024-03-23T10:40:36;100892.66;;;9.92
18161;BMP280;9205;52.032;4.314;2024-03-23T10:43:03;100896.84;;;9.96
18161;BMP280;9205;52.032;4.314;2024-03-23T10:45:31;100907.91;;;9.92
18161;BMP280;9205;52.032;4.314;2024-03-23T10:47:58;100888.47;;;9.91
18161;BMP280;9205;52.032;4.314;2024-03-23T10:50:26;100885.84;;;9.97
18161;BMP280;9205;52.032;4.314;2024-03-23T10:52:53;100895.81;;;10.08
18161;BMP280;9205;52.032;4.314;2024-03-23T10:55:25;100885.41;;;10.19
18161;BMP280;9205;52.032;4.314;2024-03-23T10:57:55;100885.00;;;10.42
18161;BMP280;9205;52.032;4.314;2024-03-23T11:00:26;100866.81;;;10.61
18161;BMP280;9205;52.032;4.314;2024-03-23T11:02:53;100876.00;;;10.65
18161;BMP280;9205;52.032;4.314;2024-03-23T11:05:30;100869.06;;;10.73
18161;BMP280;9205;52.032;4.314;2024-03-23T11:11:25;100876.44;;;10.85
18161;BMP280;9205;52.032;4.314;2024-03-23T11:13:54;100875.44;;;10.92
18161;BMP280;9205;52.032;4.314;2024-03-23T11:16:25;100878.66;;;11.00
18161;BMP280;9205;52.032;4.314;2024-03-23T11:18:54;100870.06;;;11.04
18161;BMP280;9205;52.032;4.314;2024-03-23T11:21:55;100887.00;;;11.05
18161;BMP280;9205;52.032;4.314;2024-03-23T11:24:21;100872.00;;;10.94
18161;BMP280;9205;52.032;4.314;2024-03-23T11:26:49;100872.72;;;10.99
18161;BMP280;9205;52.032;4.314;2024-03-23T11:29:17;100871.84;;;11.02
18161;BMP280;9205;52.032;4.314;2024-03-23T11:31:48;100857.44;;;11.01
18161;BMP280;9205;52.032;4.314;2024-03-23T11:34:16;100862.84;;;11.24
18161;BMP280;9205;52.032;4.314;2024-03-23T11:36:43;100870.38;;;11.27
18161;BMP280;9205;52.032;4.314;2024-03-23T11:39:14;100870.16;;;11.01
18161;BMP280;9205;52.032;4.314;2024-03-23T11:41:49;100869.28;;;11.02
18161;BMP280;9205;52.032;4.314;2024-03-23T11:44:18;100861.66;;;11.37
18161;BMP280;9205;52.032;4.314;2024-03-23T11:46:46;100852.66;;;11.59
18161;BMP280;9205;52.032;4.314;2024-03-23T11:49:23;100847.19;;;11.73
18161;BMP280;9205;52.032;4.314;2024-03-23T11:51:54;100852.25;;;11.75
18161;BMP280;9205;52.032;4.314;2024-03-23T11:54:21;100843.13;;;11.67
18161;BMP280;9205;52.032;4.314;2024-03-23T11:56:56;100855.38;;;11.51
18161;BMP280;9205;52.032;4.314;2024-03-23T11:59:38;100842.78;;;11.45
18161;BMP280;9205;52.032;4.314;2024-03-23T12:02:08;100839.22;;;11.54
18161;BMP280;9205;52.032;4.314;2024-03-23T12:04:36;100852.25;;;11.40
18161;BMP280;9205;52.032;4.314;2024-03-23T12:07:12;100848.59;;;11.17
18161;BMP280;9205;52.032;4.314;2024-03-23T12:09:39;100861.97;;;10.87
18161;BMP280;9205;52.032;4.314;2024-03-23T12:12:13;100849.25;;;10.49
18161;BMP280;9205;52.032;4.314;2024-03-23T12:14:42;100862.53;;;10.22
18161;BMP280;9205;52.032;4.314;2024-03-23T12:17:14;100851.97;;;10.00
18161;BMP280;9205;52.032;4.314;2024-03-23T12:19:42;100844.66;;;9.82
18161;BMP280;9205;52.032;4.314;2024-03-23T12:22:10;100838.97;;;9.71
18161;BMP280;9205;52.032;4.314;2024-03-23T12:24:37;100830.38;;;9.76
18161;BMP280;9205;52.032;4.314;2024-03-23T12:27:10;100830.28;;;9.81
18161;BMP280;9205;52.032;4.314;2024-03-23T12:29:37;100820.09;;;9.84
18161;BMP280;9205;52.032;4.314;2024-03-23T12:32:07;100816.53;;;9.94
18161;BMP280;9205;52.032;4.314;2024-03-23T12:34:33;100821.47;;;10.01
18161;BMP280;9205;52.032;4.314;2024-03-23T12:37:01;100811.38;;;10.00
18161;BMP280;9205;52.032;4.314;2024-03-23T12:39:27;100819.13;;;9.91
18161;BMP280;9205;52.032;4.314;2024-03-23T12:41:55;100833.03;;;9.70
18161;BMP280;9205;52.032;4.314;2024-03-23T12:44:22;100819.03;;;9.50
18161;BMP280;9205;52.032;4.314;2024-03-23T12:46:49;100815.13;;;9.31
18161;BMP280;9205;52.032;4.314;2024-03-23T12:49:17;100815.97;;;9.32
18161;BMP280;9205;52.032;4.314;2024-03-23T12:51:53;100819.72;;;9.58
18161;BMP280;9205;52.032;4.314;2024-03-23T12:54:20;100812.53;;;9.81
18161;BMP280;9205;52.032;4.314;2024-03-23T12:56:47;100798.13;;;9.83
18161;BMP280;9205;52.032;4.314;2024-03-23T12:59:14;100803.97;;;9.86
18161;BMP280;9205;52.032;4.314;2024-03-23T13:01:42;100805.69;;;9.84
18161;BMP280;9205;52.032;4.314;2024-03-23T13:04:09;100802.06;;;9.99
18161;BMP280;9205;52.032;4.314;2024-03-23T13:06:38;100800.06;;;10.15
18161;BMP280;9205;52.032;4.314;2024-03-23T13:09:04;100795.44;;;10.34
18161;BMP280;9205;52.032;4.314;2024-03-23T13:11:32;100798.69;;;10.40
18161;BMP280;9205;52.032;4.314;2024-03-23T13:13:58;100795.03;;;10.52
18161;BMP280;9205;52.032;4.314;2024-03-23T13:16:25;100778.63;;;10.66
18161;BMP280;9205;52.032;4.314;2024-03-23T13:18:51;100785.13;;;10.78
18161;BMP280;9205;52.032;4.314;2024-03-23T13:21:19;100802.53;;;10.94
18161;BMP280;9205;52.032;4.314;2024-03-23T13:23:48;100768.03;;;10.84
18161;BMP280;9205;52.032;4.314;2024-03-23T13:26:16;100783.31;;;10.83
18161;BMP280;9205;52.032;4.314;2024-03-23T13:28:43;100791.88;;;10.79
18161;BMP280;9205;52.032;4.314;2024-03-23T13:31:13;100794.38;;;10.80
18161;BMP280;9205;52.032;4.314;2024-03-23T13:33:39;100796.53;;;10.60
18161;BMP280;9205;52.032;4.314;2024-03-23T13:36:08;100806.16;;;10.46
18161;BMP280;9205;52.032;4.314;2024-03-23T13:38:34;100800.72;;;10.23
18161;BMP280;9205;52.032;4.314;2024-03-23T13:41:03;100815.59;;;10.01
18161;BMP280;9205;52.032;4.314;2024-03-23T13:43:32;100812.75;;;9.70
18161;BMP280;9205;52.032;4.314;2024-03-23T13:46:00;100800.00;;;9.72
18161;BMP280;9205;52.032;4.314;2024-03-23T13:48:27;100790.56;;;9.80
18161;BMP280;9205;52.032;4.314;2024-03-23T13:50:58;100777.47;;;10.02
18161;BMP280;9205;52.032;4.314;2024-03-23T13:53:25;100777.03;;;10.23
18161;BMP280;9205;52.032;4.314;2024-03-23T13:55:52;100774.44;;;10.26
18161;BMP280;9205;52.032;4.314;2024-03-23T13:58:21;100777.03;;;10.23
18161;BMP280;9205;52.032;4.314;2024-03-23T14:00:49;100771.31;;;10.13
18161;BMP280;9205;52.032;4.314;2024-03-23T14:03:15;100766.28;;;10.11
18161;BMP280;9205;52.032;4.314;2024-03-23T14:05:42;100773.03;;;10.12
18161;BMP280;9205;52.032;4.314;2024-03-23T14:08:10;100762.78;;;10.16
18161;BMP280;9205;52.032;4.314;2024-03-23T14:10:41;100759.38;;;10.17
18161;BMP280;9205;52.032;4.314;2024-03-23T14:13:08;100766.00;;;10.24
18161;BMP280;9205;52.032;4.314;2024-03-23T14:15:36;100747.91;;;10.40
18161;BMP280;9205;52.032;4.314;2024-03-23T14:18:03;100744.91;;;10.60
18161;BMP280;9205;52.032;4.314;2024-03-23T14:20:30;100747.06;;;10.76
18161;BMP280;9205;52.032;4.314;2024-03-23T14:22:57;100743.31;;;10.91
18161;BMP280;9205;52.032;4.314;2024-03-23T14:25:23;100733.59;;;11.06
18161;BMP280;9205;52.032;4.314;2024-03-23T14:27:54;100735.22;;;11.10
18161;BMP280;9205;52.032;4.314;2024-03-23T14:30:20;100728.41;;;11.10
18161;BMP280;9205;52.032;4.314;2024-03-23T14:32:49;100742.59;;;11.19
18161;BMP280;9205;52.032;4.314;2024-03-23T14:35:15;100736.63;;;11.20
18161;BMP280;9205;52.032;4.314;2024-03-23T14:37:42;100753.50;;;11.22
18161;BMP280;9205;52.032;4.314;2024-03-23T14:40:10;100742.19;;;11.02
18161;BMP280;9205;52.032;4.314;2024-03-23T14:42:38;100739.50;;;11.08
18161;BMP280;9205;52.032;4.314;2024-03-23T14:45:05;100752.09;;;11.11
18161;BMP280;9205;52.032;4.314;2024-03-23T14:47:33;100734.41;;;11.08
18161;BMP280;9205;52.032;4.314;2024-03-23T14:50:03;100731.88;;;11.08
18161;BMP280;9205;52.032;4.314;2024-03-23T14:52:34;100744.03;;;10.95
18161;BMP280;9205;52.032;4.314;2024-03-23T14:55:00;100739.88;;;10.93
18161;BMP280;9205;52.032;4.314;2024-03-23T14:57:28;100737.50;;;10.86
18161;BMP280;9205;52.032;4.314;2024-03-23T14:59:56;100725.59;;;10.88
18161;BMP280;9205;52.032;4.314;2024-03-23T15:02:23;100722.94;;;10.92
18161;BMP280;9205;52.032;4.314;2024-03-23T15:04:49;100720.06;;;11.05
18161;BMP280;9205;52.032;4.314;2024-03-23T15:07:19;100717.41;;;11.10
18161;BMP280;9205;52.032;4.314;2024-03-23T15:09:45;100703.84;;;11.09
18161;BMP280;9205;52.032;4.314;2024-03-23T15:12:12;100706.28;;;11.14
18161;BMP280;9205;52.032;4.314;2024-03-23T15:14:38;100702.97;;;11.10
18161;BMP280;9205;52.032;4.314;2024-03-23T15:17:05;100710.72;;;11.06
18161;BMP280;9205;52.032;4.314;2024-03-23T15:19:33;100712.03;;;10.89
18161;BMP280;9205;52.032;4.314;2024-03-23T15:22:00;100704.72;;;10.75